ハノーファー の空港の天気 - METARとTAF

ハノーファー空港 ( EDDV / HAJ ) - ドイツ ハノーファー
飛行場実況気象(Metar)
観測時間02/05 20:20 CET (02/05 19:20 UTC)
風向・風速北西 2m/s
視程10km以上
天気現象弱いしゅう雨
少しの雲 雲底高度 150m
全天の8割程度の雲 雲底高度 580m
気温2℃
湿度93%
気圧1039hPa
METAREDDV 051920Z AUTO 32003KT 9999 -SHRA FEW005 BKN019 FEW///CB 02/01 Q1039 TEMPO BKN009
過去の天気等 Google飛行場航空写真 Wunderground天気予報

過去48時間のMETAR

飛行場予報(TAF)
発表時間: 2/05 18:00 CET (2/05 17:00 UTC)
予報対象時間: 5日19時 CET ~ 6日19時 CET
風向・風速北西 2m/s
視程10km以上
全天の8割程度の雲 雲底高度 460m
5日19時 CET ~ 6日12時 CET に一時的に
全天の8割程度の雲 雲底高度 240m
6日2時 CET ~ 6日11時 CET に一時的に
視程3000m
天気現象もや
6日3時 CET ~ 6日9時 CET に 確率 30% で一時的に
視程500m
天気現象氷霧
全天を覆う雲 雲底高度 30m
6日10時 CET ~ 6日12時 CET に徐々に
風向・風速北東 3m/s
TAF EDDV 051700Z 0518/0618 32003KT 9999 BKN015
TEMPO 0518/0611 BKN008
TEMPO 0601/0610 3000 BR
PROB30 TEMPO 0602/0608 0500 FZFG OVC001
BECMG 0609/0611 04005KT